Aviation Digital Data Service (ADDS)

Output produced by METARs form (0606 UTC 22 February 2017)
found at http://aviationweather.gov/adds/metars/
 
KHUL 220520Z 2206/2306 19008KT P6SM BKN120 
     FM221200 21005KT P6SM BKN025 
     FM221700 VRB03KT P6SM BKN035